AZO2135 URMM-URSS
Flight info
| Callsign | AZO2135 |
|---|---|
| Flight time | 0h 41m |
| Altitude | 28000 |
| Route | ABELA5L ABELA B967 ERSAR G487 BINOL BINOL1K |
| Aircraft | SU95/M-SDE3FGHIRWY/LB1 |
Departure
| Time | 2026-04-30 19:44 |
|---|---|
| Airport | Mineralnye Vody Airport (URMM) |
Arrival
| Time | 2026-04-30 20:26 |
|---|---|
| Airport | Sochi International Airport (URSS) |
| Time | Latitude | Longitude | Altitude | Speed | Heading |
|---|---|---|---|---|---|
| 2026-04-30 19:19 | 44.22172 | 43.08096 | 1050 ft | 0 kts | 212° |
| 2026-04-30 19:30 | 44.22196 | 43.08115 | 1050 ft | 2 kts | 208° |
| 2026-04-30 19:31 | 44.22227 | 43.08126 | 1050 ft | 2 kts | 129° |
| 2026-04-30 19:31 | 44.22232 | 43.08117 | 1050 ft | 0 kts | 121° |
| 2026-04-30 19:31 | 44.22220 | 43.08145 | 1050 ft | 4 kts | 121° |
| 2026-04-30 19:32 | 44.22213 | 43.08161 | 1050 ft | 0 kts | 121° |
| 2026-04-30 19:33 | 44.22210 | 43.08166 | 1050 ft | 1 kts | 122° |
| 2026-04-30 19:33 | 44.22169 | 43.08260 | 1050 ft | 23 kts | 122° |
| 2026-04-30 19:34 | 44.22080 | 43.08460 | 1050 ft | 25 kts | 123° |
| 2026-04-30 19:34 | 44.22009 | 43.08614 | 1050 ft | 0 kts | 122° |
| 2026-04-30 19:34 | 44.21963 | 43.08713 | 1050 ft | 0 kts | 123° |
| 2026-04-30 19:35 | 44.21962 | 43.08715 | 1050 ft | 0 kts | 123° |
| 2026-04-30 19:37 | 44.21960 | 43.08719 | 1050 ft | 1 kts | 123° |
| 2026-04-30 19:37 | 44.21950 | 43.08741 | 1050 ft | 7 kts | 123° |
| 2026-04-30 19:38 | 44.21856 | 43.08945 | 1050 ft | 26 kts | 123° |
| 2026-04-30 19:38 | 44.21837 | 43.08986 | 1050 ft | 1 kts | 120° |
| 2026-04-30 19:38 | 44.21794 | 43.09124 | 1050 ft | 26 kts | 120° |
| 2026-04-30 19:38 | 44.21703 | 43.09304 | 1050 ft | 22 kts | 141° |
| 2026-04-30 19:39 | 44.21619 | 43.09468 | 1050 ft | 21 kts | 121° |
| 2026-04-30 19:39 | 44.21542 | 43.09642 | 1050 ft | 21 kts | 123° |
| 2026-04-30 19:39 | 44.21514 | 43.09774 | 1050 ft | 12 kts | 83° |
| 2026-04-30 19:39 | 44.21536 | 43.09909 | 1050 ft | 20 kts | 77° |
| 2026-04-30 19:40 | 44.21555 | 43.10031 | 1048 ft | 0 kts | 77° |
| 2026-04-30 19:40 | 44.21556 | 43.10035 | 1048 ft | 2 kts | 78° |
| 2026-04-30 19:40 | 44.21583 | 43.10180 | 1048 ft | 31 kts | 67° |
| 2026-04-30 19:40 | 44.21637 | 43.10247 | 1050 ft | 0 kts | 37° |
| 2026-04-30 19:41 | 44.21727 | 43.10321 | 1052 ft | 28 kts | 15° |
| 2026-04-30 19:42 | 44.21774 | 43.10296 | 1053 ft | 2 kts | 298° |
| 2026-04-30 19:42 | 44.21785 | 43.10270 | 1053 ft | 2 kts | 302° |
| 2026-04-30 19:42 | 44.21790 | 43.10260 | 1053 ft | 0 kts | 302° |
| 2026-04-30 19:44 | 44.21901 | 43.10023 | 1052 ft | 71 kts | 303° |
| 2026-04-30 19:44 | 44.22311 | 43.09126 | 1049 ft | 145 kts | 304° |
| 2026-04-30 19:44 | 44.22975 | 43.07800 | 1318 ft | 178 kts | 303° |
| 2026-04-30 19:44 | 44.23625 | 43.06234 | 1924 ft | 196 kts | 300° |
| 2026-04-30 19:45 | 44.24323 | 43.04493 | 2653 ft | 214 kts | 301° |
| 2026-04-30 19:45 | 44.25069 | 43.02585 | 3285 ft | 231 kts | 301° |
| 2026-04-30 19:45 | 44.25865 | 43.00590 | 3946 ft | 240 kts | 301° |
| 2026-04-30 19:45 | 44.26716 | 42.98586 | 4687 ft | 246 kts | 302° |
| 2026-04-30 19:46 | 44.27652 | 42.96521 | 5445 ft | 251 kts | 304° |
| 2026-04-30 19:46 | 44.28675 | 42.94572 | 6235 ft | 255 kts | 307° |
| 2026-04-30 19:46 | 44.29770 | 42.92594 | 7009 ft | 259 kts | 306° |
| 2026-04-30 19:46 | 44.30857 | 42.90575 | 7796 ft | 261 kts | 303° |
| 2026-04-30 19:47 | 44.31740 | 42.88376 | 8625 ft | 259 kts | 287° |
| 2026-04-30 19:47 | 44.32049 | 42.86746 | 9205 ft | 255 kts | 274° |
| 2026-04-30 19:47 | 44.31891 | 42.83547 | 10354 ft | 247 kts | 252° |
| 2026-04-30 19:47 | 44.31189 | 42.81418 | 11282 ft | 237 kts | 235° |
| 2026-04-30 19:48 | 44.30130 | 42.79750 | 12357 ft | 223 kts | 228° |
| 2026-04-30 19:48 | 44.29052 | 42.78210 | 13276 ft | 217 kts | 231° |
| 2026-04-30 19:48 | 44.28041 | 42.76525 | 13534 ft | 238 kts | 235° |
| 2026-04-30 19:48 | 44.26994 | 42.74595 | 13697 ft | 260 kts | 236° |
| 2026-04-30 19:49 | 44.25875 | 42.72480 | 13835 ft | 282 kts | 236° |
| 2026-04-30 19:49 | 44.23380 | 42.67803 | 14116 ft | 322 kts | 236° |
| 2026-04-30 19:49 | 44.21981 | 42.65212 | 14163 ft | 335 kts | 235° |
| 2026-04-30 19:50 | 44.20611 | 42.62618 | 14163 ft | 337 kts | 239° |
| 2026-04-30 19:50 | 44.19550 | 42.59714 | 14163 ft | 336 kts | 250° |
| 2026-04-30 19:50 | 44.18965 | 42.56539 | 14511 ft | 341 kts | 262° |
| 2026-04-30 19:50 | 44.18747 | 42.53244 | 15155 ft | 342 kts | 264° |
| 2026-04-30 19:51 | 44.18543 | 42.49926 | 15744 ft | 344 kts | 264° |
| 2026-04-30 19:51 | 44.18332 | 42.46594 | 16325 ft | 347 kts | 264° |
| 2026-04-30 19:51 | 44.18119 | 42.43234 | 16900 ft | 349 kts | 264° |
| 2026-04-30 19:51 | 44.17903 | 42.39854 | 17503 ft | 352 kts | 264° |
| 2026-04-30 19:52 | 44.17688 | 42.36441 | 18106 ft | 354 kts | 264° |
| 2026-04-30 19:52 | 44.17473 | 42.33013 | 18682 ft | 357 kts | 264° |
| 2026-04-30 19:52 | 44.17257 | 42.29552 | 19233 ft | 360 kts | 264° |
| 2026-04-30 19:52 | 44.17038 | 42.26070 | 19779 ft | 362 kts | 264° |
| 2026-04-30 19:53 | 44.16814 | 42.22566 | 20320 ft | 364 kts | 264° |
| 2026-04-30 19:53 | 44.16587 | 42.19036 | 20841 ft | 367 kts | 264° |
| 2026-04-30 19:53 | 44.16359 | 42.15483 | 21336 ft | 369 kts | 264° |
| 2026-04-30 19:53 | 44.16130 | 42.11915 | 21812 ft | 371 kts | 264° |
| 2026-04-30 19:54 | 44.15899 | 42.08323 | 22275 ft | 373 kts | 264° |
| 2026-04-30 19:54 | 44.15664 | 42.04714 | 22733 ft | 375 kts | 264° |
| 2026-04-30 19:54 | 44.15425 | 42.01077 | 23175 ft | 378 kts | 264° |
| 2026-04-30 19:54 | 44.15183 | 41.97432 | 23596 ft | 379 kts | 264° |
| 2026-04-30 19:55 | 44.14942 | 41.93806 | 23966 ft | 381 kts | 264° |
| 2026-04-30 19:55 | 44.14694 | 41.90078 | 24333 ft | 383 kts | 264° |
| 2026-04-30 19:55 | 44.14448 | 41.86383 | 24701 ft | 384 kts | 264° |
| 2026-04-30 19:55 | 44.14199 | 41.82676 | 25062 ft | 385 kts | 264° |
| 2026-04-30 19:56 | 44.13948 | 41.78962 | 25420 ft | 386 kts | 264° |
| 2026-04-30 19:56 | 44.13698 | 41.75278 | 25765 ft | 387 kts | 264° |
| 2026-04-30 19:56 | 44.13444 | 41.71539 | 26084 ft | 389 kts | 264° |
| 2026-04-30 19:56 | 44.13189 | 41.67800 | 26150 ft | 388 kts | 264° |
| 2026-04-30 19:57 | 44.12934 | 41.64065 | 26158 ft | 388 kts | 264° |
| 2026-04-30 19:57 | 44.12676 | 41.60325 | 26164 ft | 388 kts | 264° |
| 2026-04-30 19:57 | 44.12415 | 41.56569 | 26507 ft | 390 kts | 264° |
| 2026-04-30 19:57 | 44.12150 | 41.52811 | 26876 ft | 391 kts | 264° |
| 2026-04-30 19:58 | 44.11749 | 41.49057 | 27240 ft | 392 kts | 258° |
| 2026-04-30 19:58 | 44.11003 | 41.45416 | 27738 ft | 391 kts | 252° |
| 2026-04-30 19:58 | 44.09978 | 41.41914 | 28089 ft | 390 kts | 249° |
| 2026-04-30 19:58 | 44.08922 | 41.38442 | 28151 ft | 389 kts | 249° |
| 2026-04-30 19:59 | 44.07172 | 41.32696 | 28153 ft | 388 kts | 249° |
| 2026-04-30 20:00 | 44.04007 | 41.22338 | 28146 ft | 388 kts | 249° |
| 2026-04-30 20:00 | 44.01894 | 41.15442 | 28145 ft | 388 kts | 249° |
| 2026-04-30 20:01 | 43.98705 | 41.05053 | 26126 ft | 401 kts | 249° |
| 2026-04-30 20:01 | 43.97587 | 41.01417 | 24728 ft | 414 kts | 248° |
| 2026-04-30 20:01 | 43.96450 | 40.97730 | 23747 ft | 415 kts | 248° |
| 2026-04-30 20:02 | 43.94184 | 40.90425 | 21798 ft | 409 kts | 248° |
| 2026-04-30 20:02 | 43.93086 | 40.86894 | 21310 ft | 397 kts | 248° |
| 2026-04-30 20:03 | 43.90992 | 40.80176 | 21124 ft | 361 kts | 248° |
| 2026-04-30 20:03 | 43.90018 | 40.77054 | 21123 ft | 345 kts | 248° |
| 2026-04-30 20:03 | 43.89097 | 40.74106 | 21121 ft | 329 kts | 248° |
| 2026-04-30 20:03 | 43.88212 | 40.71296 | 21118 ft | 311 kts | 247° |
| 2026-04-30 20:04 | 43.87345 | 40.68552 | 21122 ft | 310 kts | 248° |
| 2026-04-30 20:04 | 43.86479 | 40.65816 | 21054 ft | 311 kts | 247° |
| 2026-04-30 20:04 | 43.85611 | 40.63079 | 20794 ft | 309 kts | 247° |
| 2026-04-30 20:05 | 43.83882 | 40.57659 | 20286 ft | 308 kts | 247° |
| 2026-04-30 20:05 | 43.83018 | 40.54946 | 20119 ft | 306 kts | 247° |
| 2026-04-30 20:05 | 43.81297 | 40.49557 | 20117 ft | 306 kts | 248° |
| 2026-04-30 20:06 | 43.80434 | 40.46863 | 20113 ft | 306 kts | 247° |
| 2026-04-30 20:06 | 43.79570 | 40.44166 | 20111 ft | 306 kts | 247° |
| 2026-04-30 20:06 | 43.78696 | 40.41431 | 20111 ft | 320 kts | 247° |
| 2026-04-30 20:06 | 43.77765 | 40.38516 | 20109 ft | 341 kts | 247° |
| 2026-04-30 20:07 | 43.76775 | 40.35423 | 20109 ft | 361 kts | 247° |
| 2026-04-30 20:07 | 43.75735 | 40.32188 | 20101 ft | 374 kts | 246° |
| 2026-04-30 20:07 | 43.73595 | 40.25562 | 20101 ft | 379 kts | 247° |
| 2026-04-30 20:08 | 43.72515 | 40.22236 | 20100 ft | 379 kts | 247° |
| 2026-04-30 20:08 | 43.71431 | 40.18906 | 20107 ft | 380 kts | 246° |
| 2026-04-30 20:08 | 43.70299 | 40.15604 | 20098 ft | 381 kts | 242° |
| 2026-04-30 20:08 | 43.68777 | 40.12610 | 20106 ft | 383 kts | 231° |
| 2026-04-30 20:09 | 43.66830 | 40.10085 | 20065 ft | 386 kts | 220° |
| 2026-04-30 20:09 | 43.64525 | 40.08153 | 19979 ft | 391 kts | 210° |
| 2026-04-30 20:09 | 43.59557 | 40.05055 | 19565 ft | 390 kts | 208° |
| 2026-04-30 20:10 | 43.54670 | 40.01989 | 19085 ft | 387 kts | 208° |
| 2026-04-30 20:10 | 43.52217 | 40.00451 | 18842 ft | 386 kts | 208° |
| 2026-04-30 20:10 | 43.49784 | 39.98931 | 18597 ft | 385 kts | 208° |
| 2026-04-30 20:11 | 43.44901 | 39.95970 | 17757 ft | 383 kts | 203° |
| 2026-04-30 20:11 | 43.42380 | 39.94811 | 17343 ft | 381 kts | 202° |
| 2026-04-30 20:11 | 43.39868 | 39.93663 | 16930 ft | 379 kts | 202° |
| 2026-04-30 20:12 | 43.34968 | 39.91438 | 16445 ft | 357 kts | 202° |
| 2026-04-30 20:12 | 43.32655 | 39.90396 | 16319 ft | 343 kts | 202° |
| 2026-04-30 20:12 | 43.30438 | 39.89396 | 16179 ft | 329 kts | 202° |
| 2026-04-30 20:13 | 43.28302 | 39.88428 | 16050 ft | 317 kts | 203° |
| 2026-04-30 20:13 | 43.26247 | 39.87497 | 15920 ft | 305 kts | 203° |
| 2026-04-30 20:13 | 43.24255 | 39.86594 | 15689 ft | 298 kts | 203° |
| 2026-04-30 20:13 | 43.22295 | 39.85704 | 15346 ft | 295 kts | 203° |
| 2026-04-30 20:14 | 43.20349 | 39.84817 | 14982 ft | 294 kts | 203° |
| 2026-04-30 20:14 | 43.18409 | 39.83931 | 14617 ft | 293 kts | 203° |
| 2026-04-30 20:14 | 43.16475 | 39.83053 | 14273 ft | 291 kts | 202° |
| 2026-04-30 20:14 | 43.14593 | 39.82203 | 14024 ft | 287 kts | 202° |
| 2026-04-30 20:15 | 43.12705 | 39.81351 | 13689 ft | 285 kts | 202° |
| 2026-04-30 20:15 | 43.10827 | 39.80501 | 13309 ft | 284 kts | 202° |
| 2026-04-30 20:15 | 43.08957 | 39.79651 | 12918 ft | 283 kts | 202° |
| 2026-04-30 20:15 | 43.07134 | 39.78682 | 12551 ft | 279 kts | 214° |
| 2026-04-30 20:16 | 43.05737 | 39.76931 | 12229 ft | 271 kts | 237° |
| 2026-04-30 20:16 | 43.05011 | 39.74561 | 11740 ft | 275 kts | 261° |
| 2026-04-30 20:16 | 43.05123 | 39.71944 | 11239 ft | 282 kts | 283° |
| 2026-04-30 20:16 | 43.05712 | 39.69343 | 10624 ft | 290 kts | 285° |
| 2026-04-30 20:17 | 43.06328 | 39.66675 | 10010 ft | 298 kts | 286° |
| 2026-04-30 20:17 | 43.06962 | 39.63936 | 9220 ft | 308 kts | 286° |
| 2026-04-30 20:17 | 43.07831 | 39.61216 | 8442 ft | 320 kts | 302° |
| 2026-04-30 20:17 | 43.09424 | 39.59023 | 7611 ft | 333 kts | 326° |
| 2026-04-30 20:18 | 43.11602 | 39.57867 | 6837 ft | 343 kts | 352° |
| 2026-04-30 20:18 | 43.13934 | 39.58095 | 6463 ft | 335 kts | 17° |
| 2026-04-30 20:18 | 43.15925 | 39.59523 | 6301 ft | 313 kts | 44° |
| 2026-04-30 20:18 | 43.17208 | 39.61752 | 6102 ft | 289 kts | 59° |
| 2026-04-30 20:19 | 43.18260 | 39.64040 | 5610 ft | 281 kts | 60° |
| 2026-04-30 20:19 | 43.19277 | 39.66305 | 5058 ft | 277 kts | 61° |
| 2026-04-30 20:19 | 43.20282 | 39.68548 | 4549 ft | 276 kts | 60° |
| 2026-04-30 20:19 | 43.21273 | 39.70759 | 4365 ft | 267 kts | 60° |
| 2026-04-30 20:20 | 43.22229 | 39.72892 | 4238 ft | 258 kts | 60° |
| 2026-04-30 20:20 | 43.23150 | 39.74948 | 4097 ft | 248 kts | 61° |
| 2026-04-30 20:20 | 43.24038 | 39.76933 | 3921 ft | 241 kts | 61° |
| 2026-04-30 20:20 | 43.24913 | 39.78889 | 3531 ft | 244 kts | 60° |
| 2026-04-30 20:21 | 43.25843 | 39.80822 | 3196 ft | 240 kts | 51° |
| 2026-04-30 20:21 | 43.27134 | 39.82260 | 2717 ft | 240 kts | 33° |
| 2026-04-30 20:21 | 43.28569 | 39.83352 | 2437 ft | 230 kts | 29° |
| 2026-04-30 20:21 | 43.29933 | 39.84349 | 2304 ft | 214 kts | 29° |
| 2026-04-30 20:22 | 43.31195 | 39.85286 | 2210 ft | 199 kts | 30° |
| 2026-04-30 20:22 | 43.32375 | 39.86167 | 2120 ft | 186 kts | 30° |
| 2026-04-30 20:22 | 43.33473 | 39.86989 | 2044 ft | 173 kts | 29° |
| 2026-04-30 20:22 | 43.34493 | 39.87753 | 1948 ft | 162 kts | 29° |
| 2026-04-30 20:23 | 43.35452 | 39.88471 | 1809 ft | 151 kts | 29° |
| 2026-04-30 20:23 | 43.36360 | 39.89151 | 1616 ft | 146 kts | 28° |
| 2026-04-30 20:23 | 43.37243 | 39.89813 | 1420 ft | 144 kts | 28° |
| 2026-04-30 20:23 | 43.38116 | 39.90467 | 1228 ft | 142 kts | 28° |
| 2026-04-30 20:24 | 43.38981 | 39.91116 | 1038 ft | 141 kts | 28° |
| 2026-04-30 20:24 | 43.39838 | 39.91759 | 858 ft | 140 kts | 28° |
| 2026-04-30 20:24 | 43.40677 | 39.92389 | 688 ft | 139 kts | 28° |
| 2026-04-30 20:24 | 43.41521 | 39.93027 | 515 ft | 138 kts | 28° |
| 2026-04-30 20:25 | 43.43213 | 39.94262 | 158 ft | 137 kts | 29° |
| 2026-04-30 20:25 | 43.44012 | 39.94883 | 81 ft | 120 kts | 30° |
| 2026-04-30 20:26 | 43.44920 | 39.95584 | 90 ft | 23 kts | 29° |
| 2026-04-30 20:26 | 43.45002 | 39.95549 | 90 ft | 0 kts | 332° |
| 2026-04-30 20:26 | 43.45059 | 39.95502 | 91 ft | 10 kts | 314° |
| 2026-04-30 20:27 | 43.45012 | 39.95331 | 88 ft | 31 kts | 245° |
| 2026-04-30 20:27 | 43.44924 | 39.95082 | 85 ft | 0 kts | 242° |
| 2026-04-30 20:28 | 43.44888 | 39.94978 | 70 ft | 27 kts | 245° |
| 2026-04-30 20:28 | 43.44745 | 39.94559 | 67 ft | 8 kts | 245° |
| 2026-04-30 20:29 | 43.44753 | 39.94496 | 64 ft | 6 kts | 327° |
| 2026-04-30 20:30 | 43.44838 | 39.94440 | 72 ft | 0 kts | 335° |